Decoded Metar for UNBB (BARNAUL in RUSSIA) (IATA:BAX) | Meteo·Mobile Aviation Weather
aviador You're here:

UNBB Decoded Metar

BARNAUL in RUSSIA
Report Time2019-07-23 03:30:00
UTC Time2019-07-23 03:48:23
Flight Rules lifr LIFR
WindCalm
Visibility1000 m
Phenomena:Mist
Smoke
Clouds:Scattered 006 Hf
Expected CloudBase > 400 ft AGL from Temp-Dew spread
CeilingNone
Temp16°C (ISA +3)
Dew Point15°C (94% RH)
QNH1003 hPa
Density Alt1,722 ft
Elevation837 ft
Report Wrong Elevation
Raw Report
UNBB 230330Z 00000MPS 2500 1000SW BR FU SCT006 16/15 Q1003
R24/CLRD66 NOSIG RMK QFE730=

Extra information for UNBB:More info

Metar Taf Metar & Taf Last 4 Metars F.Rules Stats Wind Profile Meteogram Temp Stats Airport Information Weather charts Add Link Nearby VenuesMetar ALERT Operation Metar Decoded Social comments